< < Back
Terminal Aerodrome Forecast


Current Version              Previous Versions:   1  2  3  4  5  6  7  8  9  

Terminal Aerodrome Forecast

142
FTUS42 KFFC 041353 AAA
TAFATL
TAF AMD
KATL 041353Z 0414/0518 21006KT 1SM BR BKN003
     FM041500 22008KT 3SM BR BKN007 OVC012
     FM041700 22010KT P6SM BKN012
     FM042000 22010G17KT P6SM SCT012 BKN025
     FM050200 20008KT P6SM BKN012
     FM050600 23007KT 4SM SHRA BR OVC006=

Latest METAR

791
SAUS70 KWBC 041600 RRB
MTRATL
METAR KATL 041552Z 21011KT 10SM FEW008 BKN010 OVC016 18/16 A3005 RMK AO2
SLP176 T01780161


USA.gov is the U.S. government's official web portal to all federal, state and local government web resources and services.